Time;durP1;ratioP1;P1;durP2;ratioP2;P2;SDS_P1;SDS_P2;PMS_P1;PMS_P2;Temp;Humidity;BMP_temperature;BMP_pressure;BME280_temperature;BME280_humidity;BME280_pressure;Samples;Min_cycle;Max_cycle;Signal;HPM_P1;HPM_P2
2022/11/08 00:01:34;;;;;;;12.02;3.50;;;;;;;13.69;95.79;100752.06;5009317;28;20033;-74
2022/11/08 00:04:08;;;;;;;17.25;3.33;;;;;;;13.79;95.46;100752.66;5008594;28;20609;-74
2022/11/08 00:14:47;;;;;;;17.80;2.83;;;;;;;14.00;94.57;100753.84;5049198;28;20027;-74
2022/11/08 00:17:14;;;;;;;14.85;3.55;;;;;;;14.10;94.09;100749.00;5031331;28;20115;-74
2022/11/08 00:19:41;;;;;;;10.90;2.53;;;;;;;14.11;93.86;100756.97;5047928;28;20371;-74
2022/11/08 00:22:06;;;;;;;16.83;3.00;;;;;;;14.19;93.50;100764.22;5031582;28;20025;-74
2022/11/08 00:24:33;;;;;;;11.98;2.65;;;;;;;14.09;93.91;100753.59;5049235;28;20128;-74
2022/11/08 00:26:59;;;;;;;14.25;2.70;;;;;;;14.30;92.75;100774.66;5025722;28;20017;-74
2022/11/08 00:29:25;;;;;;;13.57;2.80;;;;;;;14.30;92.74;100777.38;5027730;28;20048;-73
2022/11/08 00:31:50;;;;;;;13.00;2.70;;;;;;;14.20;93.43;100770.50;5028823;28;20104;-73
2022/11/08 00:34:15;;;;;;;13.60;3.05;;;;;;;14.17;93.20;100771.72;5012019;28;20120;-73
2022/11/08 00:36:41;;;;;;;15.93;2.95;;;;;;;14.18;93.06;100773.41;5011000;28;20030;-75
2022/11/08 00:39:06;;;;;;;16.13;2.60;;;;;;;14.08;93.66;100767.38;5029314;28;20091;-75
2022/11/08 00:41:31;;;;;;;14.70;3.15;;;;;;;14.01;94.12;100760.97;5011666;28;20105;-75
2022/11/08 00:43:57;;;;;;;13.25;2.78;;;;;;;14.05;93.46;100767.75;5011075;28;20033;-74
2022/11/08 00:46:22;;;;;;;13.32;2.78;;;;;;;14.11;93.72;100756.13;5029133;28;20032;-75
2022/11/08 00:48:47;;;;;;;7.88;2.38;;;;;;;13.89;94.48;100752.41;5011350;28;20036;-74
2022/11/08 00:51:13;;;;;;;13.80;2.67;;;;;;;14.00;93.87;100764.72;5029129;28;20030;-75
2022/11/08 00:53:39;;;;;;;15.70;2.85;;;;;;;13.98;94.52;100761.34;5011686;28;20025;-75
2022/11/08 00:56:07;;;;;;;15.35;3.63;;;;;;;13.97;93.86;100762.38;5011818;28;20075;-75
2022/11/08 00:58:33;;;;;;;17.30;3.47;;;;;;;13.89;94.27;100756.97;5011119;28;20029;-75
2022/11/08 01:00:58;;;;;;;12.90;2.30;;;;;;;14.03;93.77;100761.66;5011614;28;20025;-75
2022/11/08 01:03:25;;;;;;;11.52;2.25;;;;;;;13.97;93.97;100751.50;5011261;28;20029;-75
2022/11/08 01:05:53;;;;;;;11.30;2.55;;;;;;;13.92;94.33;100762.06;5011188;28;20017;-75
2022/11/08 01:08:21;;;;;;;14.07;3.30;;;;;;;14.07;93.24;100765.69;5011043;28;20474;-75
2022/11/08 01:10:49;;;;;;;15.55;3.13;;;;;;;13.87;94.17;100759.06;5029525;28;20030;-75
2022/11/08 01:13:16;;;;;;;26.85;4.32;;;;;;;13.87;94.55;100759.91;5029099;28;20044;-75
2022/11/08 01:15:44;;;;;;;14.38;2.90;;;;;;;13.82;94.64;100763.19;5011546;28;20030;-74
2022/11/08 01:18:11;;;;;;;14.98;3.20;;;;;;;13.70;94.92;100751.03;5028665;28;20036;-75
2022/11/08 01:20:40;;;;;;;12.93;3.22;;;;;;;13.81;94.73;100761.47;5011650;28;20029;-75
2022/11/08 01:23:06;;;;;;;10.93;2.72;;;;;;;14.00;93.70;100759.28;5011441;28;20056;-75
2022/11/08 01:25:36;;;;;;;13.73;2.95;;;;;;;13.82;94.39;100757.75;5029040;28;20033;-75
2022/11/08 01:28:01;;;;;;;11.18;3.05;;;;;;;13.83;94.56;100759.44;5010917;28;20024;-74
2022/11/08 01:30:26;;;;;;;17.90;3.33;;;;;;;13.70;94.90;100770.06;5010980;28;20037;-74
2022/11/08 01:32:52;;;;;;;13.63;3.22;;;;;;;13.73;94.66;100756.09;5011412;28;20117;-74
2022/11/08 01:35:17;;;;;;;16.35;2.83;;;;;;;13.61;95.29;100764.84;5011314;28;20037;-74
2022/11/08 01:37:43;;;;;;;10.70;2.55;;;;;;;13.89;94.14;100756.97;5010641;28;20032;-74
2022/11/08 01:40:08;;;;;;;11.10;2.58;;;;;;;13.83;94.40;100759.44;5010303;28;20064;-74
2022/11/08 01:42:34;;;;;;;12.60;2.75;;;;;;;13.64;95.09;100751.75;5014452;28;20029;-74
2022/11/08 01:45:08;;;;;;;15.50;3.33;;;;;;;13.80;94.08;100748.88;5014649;28;20075;-73
2022/11/08 01:47:34;;;;;;;9.35;2.67;;;;;;;13.63;95.12;100752.78;5031878;28;20520;-73
2022/11/08 01:50:10;;;;;;;14.45;2.67;;;;;;;13.66;94.65;100752.41;5031931;28;20053;-73
2022/11/08 01:52:44;;;;;;;15.02;3.47;;;;;;;13.75;94.61;100751.31;5014010;28;20056;-73
2022/11/08 01:55:13;;;;;;;26.45;3.83;;;;;;;13.46;95.90;100756.63;5014638;28;20051;-73
2022/11/08 01:57:58;;;;;;;10.10;2.67;;;;;;;13.49;95.95;100750.81;5013963;28;20025;-73
2022/11/08 02:00:24;;;;;;;10.77;2.97;;;;;;;13.43;95.95;100746.09;5031788;28;20052;-73
2022/11/08 02:03:11;;;;;;;15.18;3.03;;;;;;;13.52;95.84;100745.88;5031732;28;20021;-73
2022/11/08 02:05:37;;;;;;;19.20;2.90;;;;;;;13.39;95.93;100750.22;5014364;28;20095;-73
2022/11/08 02:08:16;;;;;;;12.68;2.33;;;;;;;13.43;96.15;100746.09;5031594;28;20025;-73
2022/11/08 02:10:43;;;;;;;13.15;3.70;;;;;;;13.32;96.41;100749.25;5013721;28;20074;-74
2022/11/08 02:13:12;;;;;;;17.05;2.95;;;;;;;13.32;96.39;100743.81;5031862;28;20029;-73
2022/11/08 02:15:38;;;;;;;22.02;4.10;;;;;;;13.18;96.84;100732.66;5013740;28;20045;-72
2022/11/08 02:18:04;;;;;;;22.50;3.10;;;;;;;13.21;96.86;100732.31;5031373;28;20053;-73
2022/11/08 02:20:31;;;;;;;10.82;2.95;;;;;;;13.41;96.43;100740.00;5031296;28;20060;-73
2022/11/08 02:23:23;;;;;;;12.38;3.05;;;;;;;13.44;95.65;100736.94;5013880;28;20036;-73
2022/11/08 02:25:48;;;;;;;;;;;;;;;13.49;95.44;100734.50;5013718;28;20022;-73
2022/11/08 02:28:13;;;;;;;16.13;3.20;;;;;;;13.38;96.20;100726.78;5013002;28;20023;-73
2022/11/08 02:30:39;;;;;;;16.92;3.78;;;;;;;13.47;95.31;100731.13;5013316;28;20048;-73
2022/11/08 02:33:22;;;;;;;15.52;2.95;;;;;;;13.35;96.12;100732.56;5013991;28;20108;-73
2022/11/08 02:35:50;;;;;;;13.93;3.05;;;;;;;13.45;95.44;100733.19;5030929;28;20037;-73
2022/11/08 02:38:17;;;;;;;9.02;2.38;;;;;;;13.36;95.80;100732.38;5030304;28;20124;-73
2022/11/08 02:41:09;;;;;;;19.33;3.00;;;;;;;13.49;95.34;100729.06;5030635;28;20037;-73
2022/11/08 02:43:34;;;;;;;15.45;2.50;;;;;;;13.52;95.36;100731.44;5011701;28;20045;-73
2022/11/08 02:46:00;;;;;;;15.02;2.80;;;;;;;13.56;95.20;100740.91;5030939;28;20021;-73
2022/11/08 02:48:26;;;;;;;15.23;2.40;;;;;;;13.46;95.63;100732.16;5013210;28;20044;-73
2022/11/08 02:50:51;;;;;;;12.60;2.85;;;;;;;13.47;95.56;100722.97;4993573;28;20061;-73
2022/11/08 02:53:17;;;;;;;14.23;3.38;;;;;;;13.53;95.62;100730.41;5010780;28;20109;-73
2022/11/08 02:55:43;;;;;;;13.05;2.55;;;;;;;13.54;95.37;100726.66;4993453;28;20091;-73
2022/11/08 02:58:09;;;;;;;13.30;2.95;;;;;;;13.54;94.99;100727.50;5007813;28;20512;-73
2022/11/08 03:00:34;;;;;;;20.13;3.40;;;;;;;13.59;94.80;100718.81;5013056;28;20035;-72
2022/11/08 03:03:00;;;;;;;16.90;3.15;;;;;;;13.52;95.10;100728.72;5030967;28;20025;-72
2022/11/08 03:05:27;;;;;;;12.95;3.17;;;;;;;13.59;94.78;100732.41;5012663;28;20033;-72
2022/11/08 03:07:53;;;;;;;17.80;3.47;;;;;;;13.56;95.11;100724.59;5030062;28;20030;-73
2022/11/08 03:10:19;;;;;;;13.05;3.03;;;;;;;13.51;94.97;100727.88;5030673;28;20081;-73
2022/11/08 03:12:44;;;;;;;14.98;3.30;;;;;;;13.61;94.86;100726.78;5012783;28;20026;-73
2022/11/08 03:15:12;;;;;;;18.73;3.45;;;;;;;13.57;95.07;100731.75;5039899;23;20048;-72
2022/11/08 03:17:37;;;;;;;15.75;3.20;;;;;;;13.56;94.53;100728.19;5030095;28;20032;-72
2022/11/08 03:20:04;;;;;;;16.40;3.08;;;;;;;13.48;94.97;100727.38;5031748;28;20026;-72
2022/11/08 03:22:29;;;;;;;13.93;2.80;;;;;;;13.48;95.15;100732.81;5013187;28;20017;-71
2022/11/08 03:24:54;;;;;;;12.48;2.85;;;;;;;13.47;94.96;100725.69;5025116;28;20035;-71
2022/11/08 03:27:20;;;;;;;11.30;2.83;;;;;;;13.54;94.60;100734.81;5023637;28;20074;-72
2022/11/08 03:29:45;;;;;;;11.52;2.72;;;;;;;13.46;95.08;100730.28;5012644;28;20083;-71
2022/11/08 03:32:12;;;;;;;13.52;2.80;;;;;;;13.53;94.75;100731.25;5019557;28;20020;-71
2022/11/08 03:34:37;;;;;;;17.10;4.05;;;;;;;13.42;95.38;100722.66;5032258;28;20032;-71
2022/11/08 03:37:07;;;;;;;10.82;2.83;;;;;;;13.46;95.28;100724.00;5031614;28;20032;-71
2022/11/08 03:39:32;;;;;;;18.90;3.50;;;;;;;13.45;94.86;100723.16;5036099;28;20033;-71
2022/11/08 03:42:01;;;;;;;18.05;3.45;;;;;;;13.42;95.45;100734.38;5012436;28;20021;-72
2022/11/08 03:44:30;;;;;;;17.08;3.40;;;;;;;13.39;95.26;100739.34;5012370;28;20559;-72
2022/11/08 03:46:56;;;;;;;12.25;3.10;;;;;;;13.33;95.62;100734.63;5029386;28;20032;-72
2022/11/08 03:49:21;;;;;;;14.50;3.67;;;;;;;13.21;95.92;100726.88;5029951;28;20033;-71
2022/11/08 03:51:46;;;;;;;23.23;3.42;;;;;;;13.26;95.67;100731.78;5030535;28;20022;-72
2022/11/08 03:54:12;;;;;;;13.68;3.22;;;;;;;13.32;95.26;100732.94;5030429;28;20029;-72
2022/11/08 03:56:38;;;;;;;15.10;4.30;;;;;;;13.12;96.37;100722.47;5031451;28;20056;-71
2022/11/08 03:59:03;;;;;;;21.73;3.80;;;;;;;13.10;96.55;100729.09;5034422;28;20053;-73
2022/11/08 04:01:28;;;;;;;13.93;3.10;;;;;;;13.13;96.13;100728.75;5030106;28;20454;-73
2022/11/08 04:03:54;;;;;;;18.70;3.35;;;;;;;13.13;96.28;100726.88;5018863;28;20039;-73
2022/11/08 04:06:19;;;;;;;22.73;3.97;;;;;;;13.07;96.36;100730.31;5031558;28;20023;-72
2022/11/08 04:08:44;;;;;;;16.20;3.08;;;;;;;12.99;96.88;100733.09;5031759;28;20028;-72
2022/11/08 04:16:37;;;;;;;19.70;3.33;;;;;;;12.85;97.66;100733.84;5029221;28;20025;-73
2022/11/08 04:21:49;;;;;;;16.27;3.35;;;;;;;12.73;98.62;100728.78;5029872;28;20021;-73
2022/11/08 04:24:15;;;;;;;20.13;3.50;;;;;;;12.58;99.30;100730.50;5043941;28;20029;-72
2022/11/08 04:26:41;;;;;;;11.45;2.80;;;;;;;12.56;99.32;100721.69;5028584;28;20064;-72
2022/11/08 04:29:07;;;;;;;17.52;3.33;;;;;;;12.61;98.96;100718.47;5031136;28;20021;-73
2022/11/08 04:31:33;;;;;;;17.27;3.28;;;;;;;12.66;98.57;100727.78;5011593;28;20087;-73
2022/11/08 04:33:58;;;;;;;14.63;3.00;;;;;;;12.69;98.65;100724.72;5029567;28;20408;-72
2022/11/08 04:36:23;;;;;;;17.65;3.28;;;;;;;12.49;99.39;100709.84;5029470;28;20057;-72
2022/11/08 04:38:50;;;;;;;10.88;3.00;;;;;;;12.34;100.00;100711.59;5011683;28;20060;-73
2022/11/08 04:41:18;;;;;;;20.27;3.60;;;;;;;12.49;99.68;100718.84;5011853;28;20021;-72
2022/11/08 04:43:44;;;;;;;14.13;2.80;;;;;;;12.21;100.00;100714.84;5011798;28;20080;-73
2022/11/08 04:46:21;;;;;;;16.23;3.20;;;;;;;12.02;100.00;100718.78;5029437;28;20442;-73
2022/11/08 04:48:49;;;;;;;20.02;2.90;;;;;;;11.94;100.00;100719.63;5014560;28;20025;-73
2022/11/08 04:51:18;;;;;;;17.73;3.65;;;;;;;11.93;100.00;100719.78;5049149;28;20025;-73
2022/11/08 04:53:43;;;;;;;16.23;3.63;;;;;;;11.91;100.00;100722.66;5049164;28;20135;-72
2022/11/08 04:56:11;;;;;;;17.40;3.90;;;;;;;11.82;100.00;100722.88;5018512;28;20041;-74
2022/11/08 07:34:49;;;;;;;12.70;3.05;;;;;;;11.23;100.00;100689.56;4895095;29;20075;-72
2022/11/08 07:37:16;;;;;;;21.38;3.75;;;;;;;11.23;100.00;100679.59;4889483;29;20060;-73
2022/11/08 07:39:41;;;;;;;16.65;4.60;;;;;;;11.36;100.00;100679.09;4897297;29;20055;-71
2022/11/08 07:42:07;;;;;;;15.65;3.33;;;;;;;11.32;100.00;100683.13;4893627;29;20035;-73
2022/11/08 07:44:32;;;;;;;18.85;3.70;;;;;;;11.32;100.00;100677.72;4918498;29;20043;-72
2022/11/08 07:46:57;;;;;;;12.25;2.90;;;;;;;11.44;100.00;100676.38;4892379;29;20027;-72
2022/11/08 07:49:23;;;;;;;19.08;3.28;;;;;;;11.54;100.00;100674.38;4894096;29;20028;-72
2022/11/08 07:51:48;;;;;;;15.95;3.28;;;;;;;11.60;100.00;100681.78;4896406;29;20028;-72
2022/11/08 07:54:13;;;;;;;16.27;3.70;;;;;;;11.68;100.00;100678.25;4897231;29;20042;-72
2022/11/08 07:56:39;;;;;;;16.73;3.10;;;;;;;11.73;100.00;100677.72;4895287;29;20032;-71
2022/11/08 07:59:04;;;;;;;24.00;3.50;;;;;;;11.90;99.88;100682.16;4893302;29;20044;-71
2022/11/08 08:01:30;;;;;;;21.80;4.30;;;;;;;11.97;99.22;100680.44;4909935;29;20413;-72
2022/11/08 08:03:55;;;;;;;13.88;3.05;;;;;;;11.94;99.10;100678.09;4893158;29;20163;-72
2022/11/08 08:06:22;;;;;;;18.88;3.20;;;;;;;12.18;98.37;100682.59;4892045;29;20519;-71
2022/11/08 08:08:47;;;;;;;15.45;3.30;;;;;;;12.20;98.25;100678.72;4897012;29;20024;-72
2022/11/08 08:11:14;;;;;;;15.82;3.22;;;;;;;12.04;98.82;100678.75;4891117;29;20028;-72
2022/11/08 08:13:39;;;;;;;12.75;3.20;;;;;;;11.91;99.05;100673.00;4889462;29;20028;-73
2022/11/08 08:16:04;;;;;;;17.42;3.65;;;;;;;12.10;98.62;100671.78;4902836;29;20032;-72
2022/11/08 08:18:30;;;;;;;14.77;3.03;;;;;;;11.96;98.21;100676.03;4897082;29;20031;-72
2022/11/08 08:20:56;;;;;;;19.08;4.15;;;;;;;11.84;99.18;100688.25;4902295;29;20036;-72
2022/11/08 08:23:21;;;;;;;19.92;3.58;;;;;;;11.99;98.82;100686.53;4889466;29;20021;-72
2022/11/08 08:25:46;;;;;;;14.27;3.00;;;;;;;11.91;99.00;100683.84;4896565;29;20120;-72
2022/11/08 08:28:12;;;;;;;13.32;3.42;;;;;;;12.10;98.45;100686.19;4902253;29;20043;-72
2022/11/08 08:30:37;;;;;;;14.73;2.95;;;;;;;12.05;98.05;100680.44;4892900;29;20032;-73
2022/11/08 08:33:09;;;;;;;10.15;2.38;;;;;;;12.19;97.17;100681.59;4909399;29;20037;-72
2022/11/08 08:35:35;;;;;;;11.75;2.58;;;;;;;12.17;97.85;100668.19;4900062;29;20119;-72
2022/11/08 08:38:02;;;;;;;17.35;2.75;;;;;;;12.34;97.23;100676.31;4901396;29;20038;-72
2022/11/08 08:40:28;;;;;;;21.92;3.53;;;;;;;12.31;96.63;100668.50;4898600;29;20021;-73
2022/11/08 08:42:53;;;;;;;12.80;3.30;;;;;;;12.38;96.62;100669.47;4903619;29;20039;-72
2022/11/08 08:45:19;;;;;;;11.10;2.88;;;;;;;12.39;95.34;100673.91;4886860;29;20044;-72
2022/11/08 08:47:48;;;;;;;10.93;2.95;;;;;;;12.40;95.80;100670.19;4892168;29;20033;-72
2022/11/08 08:50:14;;;;;;;9.85;2.85;;;;;;;12.38;95.68;100672.19;4894449;29;20032;-73
2022/11/08 08:52:39;;;;;;;18.17;3.13;;;;;;;12.46;95.08;100674.91;4906649;29;20040;-73
2022/11/08 08:55:05;;;;;;;12.18;3.10;;;;;;;12.49;94.78;100666.41;4896271;29;20071;-73
2022/11/08 08:57:31;;;;;;;15.75;2.85;;;;;;;12.52;94.39;100663.34;4893110;29;20033;-74
2022/11/08 08:59:56;;;;;;;15.05;3.00;;;;;;;12.67;93.56;100656.13;4897432;29;20084;-73
2022/11/08 09:02:21;;;;;;;14.73;3.47;;;;;;;12.83;92.80;100651.63;4900407;29;20039;-72
2022/11/08 09:04:46;;;;;;;13.20;2.83;;;;;;;12.85;92.91;100655.88;4902525;29;20028;-72
2022/11/08 09:07:12;;;;;;;17.23;2.97;;;;;;;12.88;92.68;100644.63;4898768;29;20040;-72
2022/11/08 09:09:37;;;;;;;11.18;2.85;;;;;;;13.14;92.18;100638.88;4898076;29;20024;-72
2022/11/08 09:12:03;;;;;;;11.50;2.72;;;;;;;13.27;90.80;100633.69;4902665;29;20370;-72
2022/11/08 09:14:28;;;;;;;8.95;3.10;;;;;;;13.28;91.11;100635.38;4903434;29;20205;-72
2022/11/08 09:16:54;;;;;;;10.30;2.60;;;;;;;13.22;91.31;100629.84;4906281;29;20024;-71
2022/11/08 09:19:20;;;;;;;17.85;3.42;;;;;;;13.11;91.11;100628.38;4904267;29;20056;-71
2022/11/08 09:21:45;;;;;;;10.27;2.97;;;;;;;13.16;91.03;100625.09;4911030;29;20086;-72
2022/11/08 09:24:10;;;;;;;10.07;2.60;;;;;;;13.20;90.69;100632.75;4908689;29;20508;-72
2022/11/08 09:26:36;;;;;;;11.45;2.88;;;;;;;13.18;90.79;100629.34;4896531;29;20033;-71
2022/11/08 09:29:01;;;;;;;15.68;3.13;;;;;;;13.24;90.04;100634.09;4895886;29;20092;-71
2022/11/08 09:31:26;;;;;;;11.27;2.50;;;;;;;13.17;90.86;100627.66;4908916;29;20032;-71
2022/11/08 09:33:52;;;;;;;13.48;2.95;;;;;;;13.30;90.10;100616.16;4912070;29;20437;-72
2022/11/08 09:36:17;;;;;;;14.40;2.60;;;;;;;13.46;89.76;100609.75;4896744;29;20096;-72
2022/11/08 09:38:42;;;;;;;8.13;2.42;;;;;;;13.55;89.50;100619.53;4894528;29;20131;-71
2022/11/08 09:41:31;;;;;;;6.82;2.50;;;;;;;13.42;89.71;100619.31;4897798;29;20031;-71
2022/11/08 09:44:20;;;;;;;22.70;3.25;;;;;;;13.50;89.43;100616.53;4907578;29;20036;-71
2022/11/08 09:46:51;;;;;;;11.43;3.25;;;;;;;13.54;89.57;100617.84;4901931;29;20032;-72
2022/11/08 09:49:41;;;;;;;15.45;2.72;;;;;;;13.54;88.53;100612.41;4903549;29;20138;-71
2022/11/08 09:52:12;;;;;;;16.95;2.45;;;;;;;13.47;89.24;100617.72;4917924;29;20030;-72
2022/11/08 09:54:45;;;;;;;11.40;2.80;;;;;;;13.51;88.93;100615.50;4899923;29;20080;-71
2022/11/08 09:57:38;;;;;;;13.18;3.08;;;;;;;13.51;88.76;100623.66;4901579;29;20043;-71
2022/11/08 10:00:05;;;;;;;9.15;2.10;;;;;;;13.55;88.43;100603.22;4892824;29;20061;-72
2022/11/08 10:02:32;;;;;;;7.68;2.55;;;;;;;13.66;88.86;100610.94;4907418;29;20044;-71
2022/11/08 10:05:01;;;;;;;11.95;3.28;;;;;;;13.57;89.16;100606.63;4893199;29;20032;-71
2022/11/08 10:07:49;;;;;;;9.73;2.53;;;;;;;13.45;89.22;100608.09;4914146;29;20072;-71
2022/11/08 10:10:33;;;;;;;8.10;2.65;;;;;;;13.45;89.40;100608.09;4891966;29;20149;-72
2022/11/08 10:13:25;;;;;;;9.43;2.85;;;;;;;13.61;88.77;100580.72;4915594;29;20031;-71
2022/11/08 10:16:08;;;;;;;7.88;2.60;;;;;;;13.55;88.98;100592.31;4888758;29;20088;-72
2022/11/08 10:18:46;;;;;;;13.57;2.72;;;;;;;13.63;88.79;100589.56;4899152;29;20032;-71
2022/11/08 10:21:23;;;;;;;13.65;3.47;;;;;;;13.57;89.13;100579.41;4892504;29;20028;-71
2022/11/08 10:24:02;;;;;;;7.60;2.53;;;;;;;13.59;88.74;100569.19;4902038;29;20043;-71
2022/11/08 10:26:41;;;;;;;7.28;2.40;;;;;;;13.62;88.53;100566.06;4893331;29;20078;-71
2022/11/08 10:29:21;;;;;;;14.90;3.00;;;;;;;13.65;88.59;100554.84;4896405;29;20035;-71
2022/11/08 10:31:51;;;;;;;10.70;2.53;;;;;;;13.81;88.22;100560.09;4899417;29;20056;-72
2022/11/08 10:34:22;;;;;;;10.00;2.50;;;;;;;13.76;87.65;100554.38;4900302;29;20052;-72
2022/11/08 10:36:53;;;;;;;8.32;2.17;;;;;;;13.79;88.17;100548.56;4899556;29;20119;-71
2022/11/08 10:39:33;;;;;;;8.13;2.50;;;;;;;14.06;87.68;100535.31;4904706;29;20035;-72
2022/11/08 10:42:11;;;;;;;13.50;2.55;;;;;;;14.23;86.20;100525.91;4906535;29;20016;-70
2022/11/08 10:44:39;;;;;;;11.55;2.35;;;;;;;13.98;86.60;100522.66;4892826;29;20127;-71
2022/11/08 10:47:12;;;;;;;6.85;2.10;;;;;;;14.05;86.92;100528.19;4903240;29;20110;-70
2022/11/08 10:49:42;;;;;;;13.18;2.42;;;;;;;14.33;85.80;100510.09;4903947;29;20070;-70
2022/11/08 10:52:10;;;;;;;13.20;2.53;;;;;;;14.46;85.48;100508.56;4900108;29;20118;-71
2022/11/08 10:54:50;;;;;;;7.10;2.28;;;;;;;14.48;85.09;100506.53;4889748;29;20044;-71
2022/11/08 10:57:36;;;;;;;14.70;2.75;;;;;;;14.44;84.84;100497.03;4893466;29;20030;-71
2022/11/08 11:00:20;;;;;;;8.65;2.40;;;;;;;14.42;84.99;100499.94;4898536;29;20028;-72
2022/11/08 11:03:11;;;;;;;10.52;2.78;;;;;;;14.52;85.15;100502.38;4896610;29;20063;-71
2022/11/08 11:05:41;;;;;;;6.78;2.00;;;;;;;14.66;84.58;100488.69;4888069;29;20181;-70
2022/11/08 11:08:06;;;;;;;9.00;2.63;;;;;;;14.47;84.84;100492.06;4898541;29;20129;-71
2022/11/08 11:10:36;;;;;;;8.90;2.40;;;;;;;14.60;84.59;100483.19;4897524;29;20056;-73
2022/11/08 11:13:08;;;;;;;5.90;2.17;;;;;;;14.55;84.86;100480.22;4903676;29;20044;-73
2022/11/08 11:15:54;;;;;;;10.35;2.58;;;;;;;14.68;84.15;100480.34;4901678;29;20512;-71
2022/11/08 11:18:33;;;;;;;6.65;1.70;;;;;;;14.82;83.17;100476.69;4903559;29;20066;-71
2022/11/08 11:21:01;;;;;;;10.43;2.60;;;;;;;14.90;83.24;100473.84;4898234;29;20033;-75
2022/11/08 11:23:48;;;;;;;10.25;2.22;;;;;;;15.10;82.86;100486.78;4905841;29;20020;-71
2022/11/08 11:26:37;;;;;;;12.63;3.13;;;;;;;14.98;82.95;100482.91;4904124;29;20021;-72
2022/11/08 11:29:03;;;;;;;6.10;2.28;;;;;;;15.06;83.01;100482.75;4897545;29;20040;-71
2022/11/08 11:31:30;;;;;;;8.98;2.03;;;;;;;15.03;82.75;100475.00;4904556;29;20082;-71
2022/11/08 11:33:56;;;;;;;6.70;2.60;;;;;;;15.20;82.41;100469.06;4910487;29;20372;-72
2022/11/08 11:36:26;;;;;;;5.63;1.90;;;;;;;15.30;81.66;100468.69;4902332;29;20136;-74
2022/11/08 11:39:23;;;;;;;7.32;1.80;;;;;;;15.59;81.10;100477.72;4899297;29;20040;-70
2022/11/08 11:42:25;;;;;;;6.10;2.15;;;;;;;15.36;81.15;100484.25;4897029;29;20041;-72
2022/11/08 11:45:18;;;;;;;15.60;2.45;;;;;;;15.41;80.81;100481.78;4888317;29;20083;-73
2022/11/08 11:47:55;;;;;;;7.80;2.55;;;;;;;15.28;81.02;100473.50;4892761;29;20412;-71
2022/11/08 11:50:44;;;;;;;13.77;2.22;;;;;;;15.27;81.41;100474.56;4894635;29;20219;-76
2022/11/08 11:53:37;;;;;;;8.10;2.15;;;;;;;15.37;81.19;100464.13;4896976;29;20021;-75
2022/11/08 11:56:21;;;;;;;10.43;2.42;;;;;;;15.54;81.12;100464.66;4899401;29;20028;-73
2022/11/08 11:58:59;;;;;;;6.00;2.10;;;;;;;15.36;81.26;100450.69;4906892;29;20301;-72
2022/11/08 12:01:48;;;;;;;10.63;2.25;;;;;;;15.34;80.80;100447.34;4907340;29;20225;-72
2022/11/08 12:04:46;;;;;;;7.72;2.08;;;;;;;15.31;81.13;100437.66;4908147;29;20040;-76
2022/11/08 12:07:21;;;;;;;11.63;2.25;;;;;;;15.38;80.85;100427.63;4903366;29;20029;-72
2022/11/08 12:09:46;;;;;;;3.88;1.85;;;;;;;15.39;80.48;100429.31;4906335;29;20036;-73
2022/11/08 12:12:33;;;;;;;5.45;1.80;;;;;;;15.59;79.85;100423.97;4899500;29;20031;-74
2022/11/08 12:15:10;;;;;;;7.43;2.10;;;;;;;15.73;80.02;100424.91;4899421;29;20036;-74
2022/11/08 12:17:48;;;;;;;7.68;2.03;;;;;;;15.64;79.29;100416.03;4915674;29;20043;-73
2022/11/08 12:20:17;;;;;;;19.90;2.75;;;;;;;15.71;78.88;100411.47;4892079;29;20028;-73
2022/11/08 12:23:28;;;;;;;7.32;1.88;;;;;;;15.58;78.06;100405.06;4890190;29;20056;-73
2022/11/08 12:26:05;;;;;;;12.05;2.08;;;;;;;15.71;77.18;100405.16;4900427;29;20039;-71
2022/11/08 12:28:58;;;;;;;9.27;2.58;;;;;;;15.89;76.48;100402.72;4893513;29;20127;-72
2022/11/08 12:31:33;;;;;;;8.93;2.20;;;;;;;15.67;75.87;100404.72;4901555;29;20183;-72
2022/11/08 12:34:17;;;;;;;7.43;2.30;;;;;;;15.68;76.18;100394.66;4907643;29;20597;-71
2022/11/08 12:36:43;;;;;;;8.05;2.05;;;;;;;15.64;75.75;100398.81;4908637;29;20059;-71
2022/11/08 12:39:15;;;;;;;5.63;2.35;;;;;;;15.85;75.03;100401.44;4904326;29;20083;-71
2022/11/08 12:42:01;;;;;;;8.52;2.00;;;;;;;15.84;75.21;100399.75;4903989;29;20032;-70
2022/11/08 12:44:41;;;;;;;4.28;1.75;;;;;;;15.72;75.01;100395.94;4911359;29;20067;-71
2022/11/08 12:47:40;;;;;;;11.55;2.17;;;;;;;15.76;75.56;100402.66;4898006;29;20036;-70
2022/11/08 12:50:24;;;;;;;5.10;1.80;;;;;;;15.88;74.99;100395.56;4895452;29;20071;-70
2022/11/08 12:53:14;;;;;;;12.57;1.98;;;;;;;15.82;75.45;100390.09;4901581;29;20512;-72
2022/11/08 12:55:45;;;;;;;10.27;2.22;;;;;;;15.77;75.08;100387.97;4907646;29;20043;-70
2022/11/08 12:58:32;;;;;;;6.85;1.73;;;;;;;15.78;74.18;100400.59;4890345;29;20501;-71
2022/11/08 13:01:06;;;;;;;9.73;2.00;;;;;;;15.83;74.28;100403.53;4894545;29;20143;-70
2022/11/08 13:03:40;;;;;;;6.40;2.00;;;;;;;15.92;74.54;100396.84;4902423;29;20039;-72
2022/11/08 13:06:39;;;;;;;9.48;1.50;;;;;;;16.02;73.96;100380.91;4919816;29;20040;-71
2022/11/08 13:09:10;;;;;;;6.57;1.73;;;;;;;15.73;74.47;100386.69;4901434;29;20043;-73
2022/11/08 13:11:58;;;;;;;8.05;2.20;;;;;;;15.76;74.40;100385.44;4921141;29;20032;-72
2022/11/08 13:14:24;;;;;;;8.05;2.05;;;;;;;15.77;74.00;100392.56;4909177;29;20083;-73
2022/11/08 13:17:16;;;;;;;8.00;2.20;;;;;;;15.65;73.97;100389.63;4902271;29;20059;-73
2022/11/08 13:19:48;;;;;;;10.43;1.75;;;;;;;15.91;73.73;100386.97;4897661;29;20036;-73
2022/11/08 13:22:28;;;;;;;7.70;2.00;;;;;;;15.89;73.63;100391.78;4903989;29;20024;-72
2022/11/08 13:24:55;;;;;;;5.22;1.77;;;;;;;15.85;73.60;100390.53;4894676;29;20071;-73
2022/11/08 13:27:38;;;;;;;11.45;1.92;;;;;;;15.64;73.72;100382.44;4905593;29;20020;-73
2022/11/08 13:30:10;;;;;;;7.75;1.60;;;;;;;15.68;74.25;100378.28;4897905;29;20024;-72
2022/11/08 13:32:41;;;;;;;15.40;2.33;;;;;;;15.90;73.51;100381.72;4894040;29;20051;-72
2022/11/08 13:35:41;;;;;;;6.47;1.80;;;;;;;15.99;73.86;100375.88;4890787;29;20036;-74
2022/11/08 13:38:18;;;;;;;10.60;1.90;;;;;;;15.81;74.50;100378.31;4910661;29;20043;-73
2022/11/08 13:41:05;;;;;;;9.13;1.77;;;;;;;15.84;74.48;100366.13;4905066;29;20052;-73
2022/11/08 13:43:33;;;;;;;8.13;1.98;;;;;;;15.80;74.59;100373.91;4904770;29;20079;-74
2022/11/08 13:46:43;;;;;;;10.20;2.15;;;;;;;15.78;74.66;100365.09;4907480;29;20096;-74
2022/11/08 13:49:17;;;;;;;7.93;1.98;;;;;;;15.95;74.43;100369.13;4903362;29;20027;-73
2022/11/08 13:51:44;;;;;;;5.68;1.95;;;;;;;15.92;74.58;100364.09;4917689;29;20024;-73
2022/11/08 13:54:21;;;;;;;9.57;1.88;;;;;;;15.75;75.23;100354.56;4899048;29;20043;-73
2022/11/08 13:56:53;;;;;;;17.23;2.10;;;;;;;15.68;75.02;100335.44;4906628;29;20036;-74
2022/11/08 13:59:28;;;;;;;9.20;1.70;;;;;;;15.65;75.03;100362.31;4920827;29;20020;-73
2022/11/08 14:01:53;;;;;;;13.57;2.60;;;;;;;15.69;74.52;100358.13;4918111;29;20024;-73
2022/11/08 14:04:40;;;;;;;8.75;2.08;;;;;;;15.50;75.84;100354.22;4913211;29;20080;-73
2022/11/08 14:07:21;;;;;;;8.27;2.05;;;;;;;15.63;75.60;100364.38;4901454;29;20024;-74
2022/11/08 14:10:02;;;;;;;19.23;2.10;;;;;;;15.65;74.90;100354.13;4899816;29;20042;-74
2022/11/08 14:12:30;;;;;;;5.18;1.73;;;;;;;15.51;75.70;100349.63;4900862;29;20016;-73
2022/11/08 14:15:03;;;;;;;8.63;2.05;;;;;;;15.61;75.56;100350.94;4893653;29;20033;-73
2022/11/08 14:17:54;;;;;;;10.60;1.80;;;;;;;15.62;75.27;100352.63;4890725;29;20056;-72
2022/11/08 14:20:29;;;;;;;17.48;2.17;;;;;;;15.56;75.70;100353.41;4898461;29;20020;-75
2022/11/08 14:22:56;;;;;;;16.98;2.08;;;;;;;15.50;75.58;100358.84;4899193;29;20024;-74
2022/11/08 14:25:35;;;;;;;10.35;1.77;;;;;;;15.52;75.40;100354.03;4915899;29;20035;-73
2022/11/08 14:28:00;;;;;;;13.40;2.50;;;;;;;15.41;76.25;100356.28;4907021;29;20100;-74
2022/11/08 14:30:26;;;;;;;5.75;1.88;;;;;;;15.43;75.98;100358.81;4904711;29;20042;-74
2022/11/08 14:33:14;;;;;;;8.43;1.98;;;;;;;15.44;76.09;100344.97;4899039;29;20092;-73